Time;durP1;ratioP1;P1;durP2;ratioP2;P2;SDS_P1;SDS_P2;PMS_P1;PMS_P2;Temp;Humidity;BMP_temperature;BMP_pressure;BME280_temperature;BME280_humidity;BME280_pressure;Samples;Min_cycle;Max_cycle;Signal;HPM_P1;HPM_P2
2023/09/09 00:00:56;;;;;;;1.60;1.50;;;;;;;-145.63;51.16;39321.50;5024595;28;20096;-66
2023/09/09 00:03:22;;;;;;;1.50;1.33;;;;;;;-145.63;51.13;39305.88;5024395;28;20045;-66
2023/09/09 00:05:48;;;;;;;1.20;1.10;;;;;;;-145.63;51.18;39288.25;5024427;28;20310;-66
2023/09/09 00:08:16;;;;;;;1.98;1.35;;;;;;;-145.63;51.14;39298.03;5024297;28;20034;-66
2023/09/09 00:10:42;;;;;;;3.88;1.33;;;;;;;-145.63;51.45;39284.34;5024074;28;20026;-66
2023/09/09 00:13:09;;;;;;;1.63;1.52;;;;;;;-145.63;51.23;39352.81;5024300;28;20093;-66
2023/09/09 00:15:34;;;;;;;2.55;2.03;;;;;;;-145.63;51.58;39311.72;5024273;28;20045;-66
2023/09/09 00:18:02;;;;;;;1.67;1.40;;;;;;;-145.63;50.93;39337.16;5024298;28;20318;-66
2023/09/09 00:20:33;;;;;;;2.40;1.50;;;;;;;-145.63;51.27;39290.22;5024146;28;20042;-66
2023/09/09 00:23:03;;;;;;;1.55;1.45;;;;;;;-145.63;51.71;39300.00;5023783;28;20022;-66
2023/09/09 00:25:29;;;;;;;1.67;1.58;;;;;;;-145.63;51.24;39255.00;5022377;28;20041;-66
2023/09/09 00:27:55;;;;;;;2.05;1.42;;;;;;;-145.63;51.71;39327.38;5023870;28;20045;-65
2023/09/09 00:30:20;;;;;;;3.90;3.58;;;;;;;-145.63;51.68;39294.13;5023577;28;20034;-67
2023/09/09 00:32:46;;;;;;;1.42;1.33;;;;;;;-145.63;51.63;39364.53;5023198;28;20238;-66
2023/09/09 00:35:12;;;;;;;2.85;1.70;;;;;;;-145.63;51.84;39317.59;5023664;28;20038;-66
2023/09/09 00:37:37;;;;;;;3.08;1.90;;;;;;;-145.63;51.83;39303.91;5023694;28;20089;-67
2023/09/09 00:40:04;;;;;;;1.65;1.42;;;;;;;-145.63;51.71;39309.78;5023981;28;20033;-67
2023/09/09 00:42:30;;;;;;;2.38;1.40;;;;;;;-145.63;51.06;39333.25;5023577;28;20025;-67
2023/09/09 00:44:55;;;;;;;2.03;1.42;;;;;;;-145.63;51.23;39294.13;5023260;28;20026;-65
2023/09/09 00:47:23;;;;;;;3.63;1.55;;;;;;;-145.63;51.59;39305.88;5023574;28;20057;-66
2023/09/09 00:49:49;;;;;;;2.85;2.00;;;;;;;-145.63;51.88;39311.72;5023140;28;20037;-65
2023/09/09 00:52:14;;;;;;;5.90;2.92;;;;;;;-145.63;52.04;39286.31;5023594;28;20071;-66
2023/09/09 00:54:40;;;;;;;2.60;1.50;;;;;;;-145.63;52.04;39290.22;5019613;28;20029;-66
2023/09/09 00:57:07;;;;;;;3.28;1.70;;;;;;;-145.63;52.04;39305.88;5023793;28;20075;-65
2023/09/09 00:59:33;;;;;;;2.50;1.48;;;;;;;-145.63;52.15;39323.47;5023237;28;20087;-65
2023/09/09 01:01:58;;;;;;;1.40;1.30;;;;;;;-145.63;51.64;39309.78;5023128;28;20277;-66
2023/09/09 01:04:24;;;;;;;1.80;1.10;;;;;;;-145.63;51.67;39282.41;5023114;28;20032;-65
2023/09/09 01:06:52;;;;;;;1.80;1.65;;;;;;;-145.63;51.91;39305.88;5023338;28;20030;-64
2023/09/09 01:09:18;;;;;;;3.75;2.08;;;;;;;-145.63;52.07;39325.41;5021736;28;20101;-65
2023/09/09 01:11:44;;;;;;;4.82;2.10;;;;;;;-145.63;51.85;39288.25;5021654;28;20096;-64
2023/09/09 01:14:10;;;;;;;4.38;1.75;;;;;;;-145.63;51.91;39288.25;5023249;28;20033;-66
2023/09/09 01:16:37;;;;;;;1.80;1.40;;;;;;;-145.63;51.90;39284.34;5023157;28;20389;-65
2023/09/09 01:19:03;;;;;;;2.20;1.20;;;;;;;-145.63;52.15;39309.78;5009200;28;20034;-67
2023/09/09 01:21:32;;;;;;;1.80;1.70;;;;;;;-145.63;52.53;39343.03;5020532;28;20045;-66
2023/09/09 01:23:58;;;;;;;2.63;2.15;;;;;;;-145.63;52.28;39317.59;5022891;28;20109;-67
2023/09/09 01:26:23;;;;;;;2.22;1.40;;;;;;;-145.63;52.06;39303.91;5013143;28;20080;-67
2023/09/09 01:28:49;;;;;;;3.70;1.60;;;;;;;-145.63;52.34;39303.91;5022870;28;20026;-65
2023/09/09 01:31:15;;;;;;;1.88;1.45;;;;;;;-145.63;52.61;39298.03;5023215;28;20193;-66
2023/09/09 01:33:40;;;;;;;1.40;1.30;;;;;;;-145.63;51.78;39296.09;5022750;28;20062;-66
2023/09/09 01:36:06;;;;;;;1.42;1.30;;;;;;;-145.63;51.90;39290.22;5023323;28;20237;-65
2023/09/09 01:38:34;;;;;;;1.40;1.20;;;;;;;-145.63;52.17;39294.13;5023092;28;20050;-66
2023/09/09 01:41:01;;;;;;;2.10;1.60;;;;;;;-145.63;52.06;39309.78;4995318;28;20049;-65
2023/09/09 01:43:26;;;;;;;3.05;1.40;;;;;;;-145.63;52.04;39300.00;5025806;28;20372;-65
2023/09/09 01:45:52;;;;;;;2.28;1.60;;;;;;;-145.63;51.84;39292.19;5027442;28;20029;-65
2023/09/09 01:48:17;;;;;;;2.35;1.35;;;;;;;-145.63;52.25;39303.91;5027080;28;20030;-65
2023/09/09 01:50:46;;;;;;;2.55;1.48;;;;;;;-145.63;52.44;39313.69;5027084;28;20033;-65
2023/09/09 01:53:12;;;;;;;2.42;1.60;;;;;;;-145.63;52.54;39319.56;5018861;28;20095;-65
2023/09/09 01:55:38;;;;;;;2.13;1.45;;;;;;;-145.63;52.65;39251.09;5026801;28;20034;-65
2023/09/09 01:58:03;;;;;;;1.60;1.50;;;;;;;-145.63;52.10;39317.59;5027174;28;20089;-65
2023/09/09 02:00:30;;;;;;;2.30;1.50;;;;;;;-145.63;52.67;39276.53;5027007;28;20034;-65
2023/09/09 02:02:56;;;;;;;1.73;1.38;;;;;;;-145.63;52.58;39319.56;5026624;28;20247;-65
2023/09/09 02:05:21;;;;;;;2.47;1.40;;;;;;;-145.63;52.64;39298.03;5026750;28;20076;-66
2023/09/09 02:07:47;;;;;;;1.60;1.45;;;;;;;-145.63;53.11;39329.34;5026789;28;20026;-66
2023/09/09 02:10:12;;;;;;;1.85;1.60;;;;;;;-145.63;52.65;39313.69;5026794;28;20038;-65
2023/09/09 02:12:38;;;;;;;3.25;2.75;;;;;;;-145.63;52.69;39307.81;5026739;28;20190;-66
2023/09/09 02:15:04;;;;;;;3.15;2.00;;;;;;;-145.63;53.03;39319.56;5026670;28;20095;-66
2023/09/09 02:17:31;;;;;;;1.45;1.35;;;;;;;-145.63;52.74;39303.91;5026647;28;20125;-66
2023/09/09 02:19:57;;;;;;;1.50;1.40;;;;;;;-145.63;52.88;39321.50;5026371;28;20033;-66
2023/09/09 02:22:24;;;;;;;2.33;1.55;;;;;;;-145.63;52.69;39325.41;5025583;28;20090;-66
2023/09/09 02:24:56;;;;;;;1.95;1.50;;;;;;;-145.63;52.40;39344.97;5026552;28;20065;-66
2023/09/09 02:27:22;;;;;;;3.67;2.58;;;;;;;-145.63;52.88;39305.88;5026690;28;20038;-65
2023/09/09 02:29:49;;;;;;;2.75;2.05;;;;;;;-145.63;52.89;39325.41;5026496;28;20049;-65
2023/09/09 02:32:17;;;;;;;4.00;1.30;;;;;;;-145.63;53.15;39321.50;5025276;28;20349;-66
2023/09/09 02:34:43;;;;;;;2.35;1.80;;;;;;;-145.63;53.16;39327.38;5026240;28;20139;-66
2023/09/09 02:37:13;;;;;;;2.70;1.70;;;;;;;-145.63;53.14;39305.88;5026286;28;20085;-66
2023/09/09 02:39:41;;;;;;;2.30;1.58;;;;;;;-145.63;53.29;39333.25;5025772;28;20210;-66
2023/09/09 02:42:07;;;;;;;3.05;1.77;;;;;;;-145.63;53.40;39278.47;5026097;28;20314;-65
2023/09/09 02:44:32;;;;;;;2.90;1.80;;;;;;;-145.63;53.54;39333.25;5025058;28;20075;-65
2023/09/09 02:46:58;;;;;;;2.10;1.55;;;;;;;-145.63;53.27;39343.03;5025573;28;20140;-65
2023/09/09 02:49:24;;;;;;;3.38;1.80;;;;;;;-145.63;53.11;39335.19;5025743;28;20029;-66
2023/09/09 02:51:49;;;;;;;2.80;1.60;;;;;;;-145.63;53.21;39325.41;5025981;28;20026;-66
2023/09/09 02:54:15;;;;;;;2.78;1.60;;;;;;;-145.63;53.13;39344.97;5024931;28;20036;-66
2023/09/09 02:56:40;;;;;;;1.88;1.33;;;;;;;-145.63;53.09;39333.25;5025921;28;20053;-66
2023/09/09 02:59:06;;;;;;;3.63;1.40;;;;;;;-145.63;53.17;39307.81;5025945;28;20033;-66
2023/09/09 03:01:32;;;;;;;1.45;1.35;;;;;;;-145.63;53.00;39321.50;5024828;28;20026;-66
2023/09/09 03:03:57;;;;;;;2.58;1.63;;;;;;;-145.63;53.51;39362.59;5025874;28;20196;-66
2023/09/09 03:06:23;;;;;;;1.48;1.33;;;;;;;-145.63;53.54;39298.03;5025684;28;20036;-66
2023/09/09 03:08:48;;;;;;;2.20;1.38;;;;;;;-145.63;53.17;39290.22;5025500;28;20214;-66
2023/09/09 03:11:14;;;;;;;1.67;1.42;;;;;;;-145.63;52.88;39323.47;5025484;28;20234;-67
2023/09/09 03:13:40;;;;;;;2.58;1.63;;;;;;;-145.63;53.34;39303.91;5025115;28;20037;-67
2023/09/09 03:16:06;;;;;;;1.58;1.40;;;;;;;-145.63;53.15;39282.41;5025373;28;20052;-67
2023/09/09 03:18:31;;;;;;;1.58;1.20;;;;;;;-145.63;53.04;39303.91;5025557;28;20022;-65
2023/09/09 03:20:57;;;;;;;2.35;1.50;;;;;;;-145.63;52.86;39309.78;5024924;28;20044;-66
2023/09/09 03:23:22;;;;;;;3.22;1.58;;;;;;;-145.63;53.01;39341.06;5025160;28;20044;-66
2023/09/09 03:25:48;;;;;;;1.63;1.50;;;;;;;-145.63;53.26;39325.41;5025148;28;20226;-66
2023/09/09 03:28:14;;;;;;;3.33;1.73;;;;;;;-145.63;53.17;39329.34;5025163;28;20106;-66
2023/09/09 03:30:57;;;;;;;4.13;1.90;;;;;;;-145.63;52.93;39301.94;5024038;28;20021;-65
2023/09/09 03:33:23;;;;;;;3.60;2.00;;;;;;;-145.63;52.99;39319.56;5025129;28;20022;-66
2023/09/09 03:35:48;;;;;;;2.20;2.00;;;;;;;-145.63;52.32;39290.22;5024996;28;20028;-65
2023/09/09 03:38:14;;;;;;;2.10;1.80;;;;;;;-145.63;52.39;39303.91;5025149;28;20274;-66
2023/09/09 03:40:42;;;;;;;4.75;2.05;;;;;;;-145.63;52.10;39313.69;5024859;28;20032;-66
2023/09/09 03:43:08;;;;;;;3.55;2.05;;;;;;;-145.63;52.32;39317.59;5025297;28;20049;-66
2023/09/09 03:45:34;;;;;;;4.35;2.25;;;;;;;-145.63;52.40;39301.94;5025279;28;20093;-66
2023/09/09 03:48:00;;;;;;;4.28;2.80;;;;;;;-145.63;52.19;39309.78;5024716;28;20037;-66
2023/09/09 03:50:25;;;;;;;4.53;2.60;;;;;;;-145.63;52.56;39348.88;5025174;28;20397;-66
2023/09/09 03:52:51;;;;;;;3.58;1.83;;;;;;;-145.63;52.46;39327.38;5024643;28;20037;-65
2023/09/09 03:55:17;;;;;;;1.95;1.50;;;;;;;-145.63;52.75;39300.00;5024888;28;20026;-66
2023/09/09 03:57:44;;;;;;;4.05;1.67;;;;;;;-145.63;52.79;39305.88;5024690;28;20032;-65
2023/09/09 04:00:11;;;;;;;3.63;1.77;;;;;;;-145.63;52.59;39339.13;5023470;28;20021;-65
2023/09/09 04:02:36;;;;;;;3.25;1.75;;;;;;;-145.63;52.79;39348.88;5024598;28;20026;-65
2023/09/09 04:05:02;;;;;;;2.33;1.70;;;;;;;-145.63;52.46;39303.91;5024406;28;20345;-65
2023/09/09 04:07:35;;;;;;;2.47;1.50;;;;;;;-145.63;52.96;39298.03;5024588;28;20190;-65
2023/09/09 04:10:01;;;;;;;3.97;1.97;;;;;;;-145.63;52.69;39309.78;5004848;28;20199;-65
2023/09/09 04:12:30;;;;;;;5.93;1.92;;;;;;;-145.63;53.23;39305.88;5020806;28;20041;-65
2023/09/09 04:14:55;;;;;;;2.22;2.00;;;;;;;-145.63;53.17;39323.47;5024171;28;20202;-65
2023/09/09 04:17:21;;;;;;;1.80;1.70;;;;;;;-145.63;53.04;39307.81;5024280;28;20034;-64
2023/09/09 04:19:47;;;;;;;2.35;1.85;;;;;;;-145.63;52.88;39311.72;5024153;28;20033;-65
2023/09/09 04:22:12;;;;;;;1.77;1.67;;;;;;;-145.63;52.74;39313.69;5023290;28;20044;-65
2023/09/09 04:24:38;;;;;;;4.75;1.75;;;;;;;-145.63;52.71;39313.69;5023329;28;20061;-66
2023/09/09 04:27:04;;;;;;;3.28;1.77;;;;;;;-145.63;52.79;39298.03;5024102;28;20088;-65
2023/09/09 04:29:29;;;;;;;2.83;1.63;;;;;;;-145.63;52.48;39303.91;5024221;28;20036;-66
2023/09/09 04:31:55;;;;;;;2.42;1.70;;;;;;;-145.63;52.96;39419.31;5023785;28;20111;-66
2023/09/09 04:34:21;;;;;;;2.38;1.77;;;;;;;-145.63;52.79;39305.88;5024104;28;20056;-67
2023/09/09 04:36:47;;;;;;;3.83;1.60;;;;;;;-145.63;53.02;39270.66;5023919;28;20033;-66
2023/09/09 04:39:13;;;;;;;2.67;1.80;;;;;;;-145.63;53.03;39321.50;5018857;28;20501;-65
2023/09/09 04:41:40;;;;;;;2.28;1.70;;;;;;;-145.63;52.93;39315.66;5023460;28;20032;-65
2023/09/09 04:44:06;;;;;;;2.75;1.75;;;;;;;-145.63;52.70;39321.50;5022962;28;20037;-66
2023/09/09 04:46:32;;;;;;;2.67;1.60;;;;;;;-145.63;52.48;39288.25;5024119;28;20041;-65
2023/09/09 04:48:57;;;;;;;3.03;1.80;;;;;;;-145.63;52.42;39294.13;5023816;28;20332;-66
2023/09/09 04:51:23;;;;;;;4.45;1.85;;;;;;;-145.63;52.44;39290.22;5022577;28;20018;-65
2023/09/09 04:53:50;;;;;;;2.15;1.95;;;;;;;-145.63;52.23;39278.47;5023555;28;20022;-64
2023/09/09 04:56:16;;;;;;;3.60;1.73;;;;;;;-145.63;52.21;39296.09;5022860;28;20026;-66
2023/09/09 04:58:41;;;;;;;1.70;1.60;;;;;;;-145.63;52.38;39301.94;5023785;28;20112;-65
2023/09/09 05:01:07;;;;;;;2.63;1.70;;;;;;;-145.63;52.13;39278.47;5023917;28;20318;-66
2023/09/09 05:03:33;;;;;;;2.00;1.20;;;;;;;-145.63;52.27;39309.78;5023525;28;20072;-67
2023/09/09 05:05:58;;;;;;;1.60;1.50;;;;;;;-145.63;51.33;39264.78;5022522;28;20088;-66
2023/09/09 05:08:24;;;;;;;2.55;1.77;;;;;;;-145.63;52.23;39278.47;5023672;28;20225;-66
2023/09/09 05:10:50;;;;;;;1.75;1.50;;;;;;;-145.63;51.69;39305.88;5023488;28;20034;-67
2023/09/09 05:13:15;;;;;;;1.70;1.40;;;;;;;-145.63;51.77;39278.47;5023459;28;20026;-65
2023/09/09 05:15:41;;;;;;;3.63;1.50;;;;;;;-145.63;51.61;39286.31;5023323;28;20036;-66
2023/09/09 05:18:06;;;;;;;1.33;1.20;;;;;;;-145.63;51.88;39276.53;5023019;28;20029;-67
2023/09/09 05:20:32;;;;;;;2.58;1.55;;;;;;;-145.63;51.79;39264.78;5023398;28;20279;-66
2023/09/09 05:22:58;;;;;;;4.72;1.33;;;;;;;-145.63;51.33;39286.31;5022976;28;20083;-66
2023/09/09 05:25:23;;;;;;;1.15;1.08;;;;;;;-145.63;51.36;39251.09;5023231;28;20045;-64
2023/09/09 05:27:49;;;;;;;2.33;1.50;;;;;;;-145.63;51.01;39266.75;5023107;28;20044;-66
2023/09/09 05:30:15;;;;;;;3.92;1.48;;;;;;;-145.63;50.69;39256.97;5023515;28;20037;-65
2023/09/09 05:32:40;;;;;;;3.00;1.92;;;;;;;-145.63;50.37;39219.81;5023158;28;20026;-65
2023/09/09 05:35:07;;;;;;;5.20;2.10;;;;;;;-145.63;50.08;39251.09;5023282;28;20326;-65
2023/09/09 05:37:33;;;;;;;3.10;1.75;;;;;;;-145.63;50.35;39262.84;5003812;28;20223;-66
2023/09/09 05:40:00;;;;;;;2.25;1.75;;;;;;;-145.63;49.19;39243.28;5022544;28;20033;-65
2023/09/09 05:42:26;;;;;;;2.25;1.95;;;;;;;-145.63;49.02;39198.31;5022939;28;20456;-66
2023/09/09 05:44:52;;;;;;;3.97;1.95;;;;;;;-145.63;49.30;39231.53;5023177;28;20029;-65
2023/09/09 05:47:17;;;;;;;2.92;1.73;;;;;;;-145.63;48.42;39229.59;5023218;28;20033;-66
2023/09/09 05:49:43;;;;;;;3.80;2.22;;;;;;;-145.63;48.50;39243.28;5023168;28;20104;-65
2023/09/09 05:52:08;;;;;;;2.45;2.03;;;;;;;-145.63;48.01;39245.25;5023245;28;20188;-66
2023/09/09 05:54:34;;;;;;;4.63;2.10;;;;;;;-145.63;47.78;39212.00;5023325;28;20030;-65
2023/09/09 05:57:00;;;;;;;6.00;2.90;;;;;;;-145.63;47.82;39258.94;5021812;28;20040;-66
2023/09/09 05:59:26;;;;;;;5.85;2.65;;;;;;;-145.63;48.06;39219.81;5022941;28;20026;-66
2023/09/09 06:01:51;;;;;;;4.35;2.60;;;;;;;-145.63;47.55;39255.00;5022846;28;20029;-66
2023/09/09 06:04:17;;;;;;;3.05;2.47;;;;;;;-145.63;47.87;39182.66;5023060;28;20040;-65
2023/09/09 06:06:48;;;;;;;3.05;2.20;;;;;;;-145.63;47.18;39192.44;5021940;28;20041;-66
2023/09/09 06:09:13;;;;;;;4.93;2.25;;;;;;;-145.63;47.40;39180.69;5021788;28;20048;-66
2023/09/09 06:11:39;;;;;;;6.07;2.53;;;;;;;-145.63;47.84;39168.97;5022794;28;20320;-65
2023/09/09 06:14:05;;;;;;;7.10;2.72;;;;;;;-145.63;47.53;39192.44;5005366;28;20026;-66
2023/09/09 06:16:31;;;;;;;5.35;2.65;;;;;;;-145.63;47.21;39200.25;5022967;28;20034;-65
2023/09/09 06:18:57;;;;;;;2.97;2.10;;;;;;;-145.63;46.67;39223.72;5018099;28;20026;-65
2023/09/09 06:21:22;;;;;;;3.08;2.58;;;;;;;-145.63;46.38;39180.69;5016801;28;20032;-65
2023/09/09 06:23:48;;;;;;;4.25;2.38;;;;;;;-145.63;46.41;39174.84;5021479;28;20046;-66
2023/09/09 06:26:14;;;;;;;6.60;1.95;;;;;;;-145.63;44.07;39184.59;5022822;28;20076;-66
2023/09/09 06:28:39;;;;;;;2.88;1.60;;;;;;;-145.63;44.04;39176.78;5022887;28;20037;-64
2023/09/09 06:31:05;;;;;;;1.90;1.80;;;;;;;-145.63;44.52;39212.00;5026175;28;20326;-63
2023/09/09 06:33:31;;;;;;;3.53;1.85;;;;;;;-145.63;44.00;39206.13;5026096;28;20021;-65
2023/09/09 06:35:56;;;;;;;1.80;1.40;;;;;;;-145.63;43.91;39147.44;5026171;28;20030;-65
2023/09/09 06:38:22;;;;;;;2.40;1.70;;;;;;;-145.63;44.76;39149.41;5026013;28;20029;-65
2023/09/09 06:40:48;;;;;;;2.15;1.35;;;;;;;-145.63;43.11;39141.59;5025804;28;20033;-65
2023/09/09 06:43:21;;;;;;;1.23;1.13;;;;;;;-145.63;43.00;39168.97;5025896;28;20033;-65
2023/09/09 06:45:48;;;;;;;2.88;1.23;;;;;;;-145.63;41.93;39180.69;5025844;28;20040;-66
2023/09/09 06:48:17;;;;;;;1.50;1.40;;;;;;;-145.63;42.29;39170.91;5026048;28;20084;-66
2023/09/09 06:50:46;;;;;;;3.00;1.25;;;;;;;-145.63;41.46;39180.69;5025860;28;20041;-65
2023/09/09 06:53:13;;;;;;;3.80;1.13;;;;;;;-145.63;41.61;39161.13;5024964;28;20036;-66
2023/09/09 06:55:44;;;;;;;6.07;1.50;;;;;;;-145.63;41.27;39159.19;5025884;28;20092;-66
2023/09/09 06:58:10;;;;;;;1.38;1.00;;;;;;;-145.63;39.73;39125.94;5006262;28;20030;-65
2023/09/09 07:00:36;;;;;;;2.28;1.00;;;;;;;-145.63;40.88;39135.72;5021390;28;20081;-68
2023/09/09 07:03:03;;;;;;;1.20;1.10;;;;;;;-145.63;39.52;39143.53;5025567;28;20030;-66
2023/09/09 07:05:31;;;;;;;2.55;1.00;;;;;;;-145.63;40.21;39149.41;5025594;28;20089;-67
2023/09/09 07:07:57;;;;;;;3.25;1.15;;;;;;;-145.63;41.13;39167.00;5026030;28;20036;-66
2023/09/09 07:10:23;;;;;;;1.58;0.95;;;;;;;-145.63;41.87;39172.88;5025782;28;20034;-67
2023/09/09 07:12:51;;;;;;;2.10;1.40;;;;;;;-145.63;41.53;39231.53;5025562;28;20128;-66
2023/09/09 07:15:17;;;;;;;1.80;1.30;;;;;;;-145.63;41.50;39215.91;5025341;28;20040;-66
2023/09/09 07:17:44;;;;;;;1.02;0.93;;;;;;;-145.63;41.40;39255.00;5025141;28;20354;-66
2023/09/09 07:20:10;;;;;;;1.73;1.10;;;;;;;-145.63;42.18;39213.94;5024316;28;20058;-66
2023/09/09 07:22:35;;;;;;;1.65;1.10;;;;;;;-145.63;41.82;39235.47;5025459;28;20033;-65
2023/09/09 07:25:01;;;;;;;1.73;1.20;;;;;;;-145.63;41.91;39221.78;5024909;28;20322;-65
2023/09/09 07:27:27;;;;;;;1.10;1.00;;;;;;;-145.63;42.43;39194.38;5025114;28;20030;-65
2023/09/09 07:29:53;;;;;;;4.53;1.10;;;;;;;-145.63;43.08;39219.81;5025095;28;20032;-66
2023/09/09 07:32:19;;;;;;;2.40;1.45;;;;;;;-145.63;42.12;39249.16;5025329;28;20029;-67
2023/09/09 07:34:44;;;;;;;3.22;1.40;;;;;;;-145.63;42.53;39168.97;5025068;28;20029;-66
2023/09/09 07:37:10;;;;;;;3.22;1.20;;;;;;;-145.63;42.53;39241.31;5025105;28;20028;-65
2023/09/09 07:39:52;;;;;;;3.40;1.63;;;;;;;-145.63;43.27;38693.75;5024640;28;20045;-65
2023/09/09 07:42:18;;;;;;;1.80;1.40;;;;;;;-145.63;43.26;39235.47;5024759;28;20089;-65
2023/09/09 07:44:44;;;;;;;6.38;2.30;;;;;;;-145.63;43.47;39217.84;5025166;28;20036;-66
2023/09/09 07:47:11;;;;;;;8.02;5.45;;;;;;;-145.63;42.86;39221.78;5024926;28;20030;-65
2023/09/09 07:49:37;;;;;;;7.43;5.70;;;;;;;-145.63;43.51;39219.81;5024720;28;20029;-66
2023/09/09 07:52:04;;;;;;;8.60;6.20;;;;;;;-145.63;43.40;39217.84;5024479;28;20028;-66
2023/09/09 07:54:30;;;;;;;7.43;5.65;;;;;;;-145.63;43.14;39247.19;5024540;28;20061;-67
2023/09/09 07:56:58;;;;;;;1.63;1.52;;;;;;;-145.63;42.78;39204.16;5024343;28;20071;-66
2023/09/09 07:59:28;;;;;;;2.30;1.60;;;;;;;-145.63;43.05;39237.41;5024394;28;20022;-67
2023/09/09 08:01:54;;;;;;;2.75;1.70;;;;;;;-145.63;43.05;39233.50;5024455;28;20033;-67
2023/09/09 08:04:20;;;;;;;3.58;1.85;;;;;;;-145.63;43.20;39186.56;5024507;28;20085;-66
2023/09/09 08:06:46;;;;;;;3.60;1.80;;;;;;;-145.63;43.32;39212.00;5024518;28;20026;-67
2023/09/09 08:09:12;;;;;;;2.80;1.40;;;;;;;-145.63;43.17;39204.16;5024469;28;20274;-66
2023/09/09 08:11:38;;;;;;;2.17;1.45;;;;;;;-145.63;42.96;39241.31;5024288;28;20036;-66
2023/09/09 08:14:04;;;;;;;1.80;1.35;;;;;;;-145.63;43.87;39262.84;5024042;28;20022;-65
2023/09/09 08:16:30;;;;;;;5.88;5.30;;;;;;;-145.63;43.77;39243.28;5024481;28;20026;-67
2023/09/09 08:18:57;;;;;;;2.72;1.67;;;;;;;-145.63;43.21;39194.38;5022710;28;20056;-65
2023/09/09 08:21:23;;;;;;;1.48;1.38;;;;;;;-145.63;43.53;39239.38;5023919;28;20030;-66
2023/09/09 08:23:49;;;;;;;1.70;1.30;;;;;;;-145.63;43.47;39229.59;5024049;28;20050;-67
2023/09/09 08:26:14;;;;;;;2.47;1.88;;;;;;;-145.63;43.34;39239.38;5024087;28;20032;-66
2023/09/09 08:28:40;;;;;;;4.18;2.72;;;;;;;-145.63;43.50;39172.88;5023619;28;20026;-66
2023/09/09 08:31:06;;;;;;;4.38;3.53;;;;;;;-145.63;44.50;39255.00;5023521;28;20022;-64
2023/09/09 08:33:31;;;;;;;4.85;1.67;;;;;;;-145.63;44.18;39241.31;5024026;28;20105;-66
2023/09/09 08:36:03;;;;;;;1.45;1.35;;;;;;;-145.63;44.17;39217.84;5023735;28;20029;-66
2023/09/09 08:38:29;;;;;;;1.50;1.17;;;;;;;-145.63;43.98;39243.28;5023843;28;20091;-65
2023/09/09 08:40:57;;;;;;;1.50;1.40;;;;;;;-145.63;43.92;39210.03;5023491;28;20423;-66
2023/09/09 08:43:43;;;;;;;2.50;1.30;;;;;;;-145.63;44.84;39213.94;5023866;28;20033;-66
2023/09/09 08:46:11;;;;;;;1.92;1.55;;;;;;;-145.63;44.77;39219.81;4983557;28;20050;-66
2023/09/09 08:48:37;;;;;;;2.78;1.67;;;;;;;-145.63;43.85;39233.50;5023822;28;20271;-66
2023/09/09 08:51:04;;;;;;;3.92;2.10;;;;;;;-145.63;44.11;39210.03;5023517;28;20042;-66
2023/09/09 08:53:35;;;;;;;3.85;1.70;;;;;;;-145.63;44.67;39284.34;5022814;28;20017;-66
2023/09/09 08:56:02;;;;;;;3.80;2.03;;;;;;;-145.63;45.05;39229.59;5023426;28;20257;-65
2023/09/09 08:58:28;;;;;;;3.40;1.65;;;;;;;-145.63;44.73;39225.69;5023951;28;20105;-64
2023/09/09 09:00:54;;;;;;;3.10;1.60;;;;;;;-145.63;44.47;39192.44;5006127;28;20029;-65
2023/09/09 09:03:20;;;;;;;5.13;1.83;;;;;;;-145.63;45.02;39233.50;5015738;28;20099;-65
2023/09/09 09:05:47;;;;;;;3.40;1.80;;;;;;;-145.63;44.62;39247.19;5023331;28;20076;-66
2023/09/09 09:08:12;;;;;;;8.73;2.08;;;;;;;-145.63;44.86;39249.16;5023336;28;20084;-66
2023/09/09 09:10:40;;;;;;;7.18;1.90;;;;;;;-145.63;45.23;39247.19;5023607;28;20034;-66
2023/09/09 09:13:06;;;;;;;2.60;1.60;;;;;;;-145.63;45.15;39262.84;5023521;28;20088;-65
2023/09/09 09:15:32;;;;;;;2.03;1.60;;;;;;;-145.63;45.12;39266.75;5023143;28;20030;-65
2023/09/09 09:17:59;;;;;;;2.92;1.55;;;;;;;-145.63;45.64;39251.09;5023117;28;20318;-65
2023/09/09 09:20:27;;;;;;;1.98;1.45;;;;;;;-145.63;45.18;39258.94;5023585;28;20029;-66
2023/09/09 09:22:57;;;;;;;2.95;1.60;;;;;;;-145.63;45.87;39241.31;5022780;28;20026;-66
2023/09/09 09:25:23;;;;;;;1.70;1.60;;;;;;;-145.63;45.68;39219.81;5003492;28;20046;-65
2023/09/09 09:27:49;;;;;;;2.55;1.58;;;;;;;-145.63;45.81;39239.38;5019159;28;20097;-66
2023/09/09 09:30:22;;;;;;;6.43;2.08;;;;;;;-145.63;45.93;39239.38;5022947;28;20045;-65
2023/09/09 09:32:51;;;;;;;4.75;1.80;;;;;;;-145.63;45.89;39221.78;5022960;28;20037;-64
2023/09/09 09:35:24;;;;;;;3.58;2.05;;;;;;;-145.63;45.59;39176.78;5023215;28;20033;-65
2023/09/09 09:38:14;;;;;;;3.38;1.60;;;;;;;-145.63;45.96;39241.31;5023087;28;20034;-65
2023/09/09 09:40:40;;;;;;;4.40;2.05;;;;;;;-145.63;46.17;39245.25;5004669;28;20030;-67
2023/09/09 09:43:19;;;;;;;3.10;1.90;;;;;;;-145.63;45.91;39212.00;5022769;28;20021;-66
2023/09/09 09:45:45;;;;;;;2.67;2.17;;;;;;;-145.63;46.18;39202.22;5022654;28;20221;-65
2023/09/09 09:48:23;;;;;;;16.65;11.55;;;;;;;-145.63;46.46;39215.91;5023170;28;20025;-66
2023/09/09 09:50:53;;;;;;;7.25;5.53;;;;;;;-145.63;45.58;39184.59;5022903;28;20129;-66
2023/09/09 09:53:18;;;;;;;6.30;2.60;;;;;;;-145.63;45.74;39182.66;5023239;28;20033;-65
2023/09/09 09:55:45;;;;;;;6.65;2.45;;;;;;;-145.63;46.64;39204.16;5022996;28;20040;-66
2023/09/09 09:58:13;;;;;;;3.58;2.28;;;;;;;-145.63;46.00;39215.91;5007778;28;20037;-65
2023/09/09 10:00:39;;;;;;;2.78;2.25;;;;;;;-145.63;46.19;39202.22;5017452;28;20026;-65
2023/09/09 10:03:06;;;;;;;4.25;2.70;;;;;;;-145.63;47.06;38676.16;5023299;28;20318;-65
2023/09/09 10:05:34;;;;;;;3.30;2.15;;;;;;;-145.63;47.11;39286.31;5026700;28;20030;-66
2023/09/09 10:08:08;;;;;;;2.95;2.58;;;;;;;-145.63;47.30;39239.38;5010065;28;20057;-65
2023/09/09 10:10:36;;;;;;;2.60;2.40;;;;;;;-145.63;47.08;39239.38;5026898;28;20026;-64
2023/09/09 10:13:35;;;;;;;3.90;2.00;;;;;;;-145.63;47.66;39215.91;5026491;28;20029;-65
2023/09/09 10:16:01;;;;;;;4.75;2.03;;;;;;;-145.63;46.82;39213.94;5025108;28;20041;-67
2023/09/09 10:18:28;;;;;;;5.50;3.70;;;;;;;-145.63;47.51;39212.00;5026447;28;20175;-65
2023/09/09 10:20:55;;;;;;;4.68;2.50;;;;;;;-145.63;47.13;39229.59;5026427;28;20026;-65
2023/09/09 10:23:22;;;;;;;4.63;2.70;;;;;;;-145.63;47.18;39215.91;5026254;28;20044;-64
2023/09/09 10:25:50;;;;;;;3.90;1.67;;;;;;;-145.63;47.74;39247.19;5026596;28;20029;-66
2023/09/09 10:28:20;;;;;;;3.13;2.25;;;;;;;-145.63;47.68;39253.06;5026375;28;20182;-64
2023/09/09 10:30:48;;;;;;;5.97;3.70;;;;;;;-145.63;47.29;39219.81;5026237;28;20026;-65
2023/09/09 10:33:15;;;;;;;3.13;2.60;;;;;;;-145.63;47.55;39215.91;5026253;28;20032;-65
2023/09/09 10:35:43;;;;;;;5.63;3.33;;;;;;;-145.63;47.78;39235.47;5026000;28;20029;-65
2023/09/09 10:38:11;;;;;;;2.90;1.83;;;;;;;-145.63;47.46;39323.47;5026020;28;20093;-65
2023/09/09 10:40:39;;;;;;;2.38;1.90;;;;;;;-145.63;47.20;39204.16;5026312;28;20030;-65
2023/09/09 10:43:05;;;;;;;4.30;3.40;;;;;;;-145.63;47.97;39219.81;5024362;28;20022;-64
2023/09/09 10:45:32;;;;;;;4.82;3.40;;;;;;;-145.63;47.51;39182.66;5025747;28;20088;-65
2023/09/09 10:48:07;;;;;;;3.53;2.30;;;;;;;-145.63;47.17;39192.44;5025667;28;20337;-63
2023/09/09 10:50:46;;;;;;;7.45;5.63;;;;;;;-145.63;47.65;39223.72;5026012;28;20041;-63
2023/09/09 10:53:27;;;;;;;4.35;3.95;;;;;;;-145.63;48.29;39212.00;5025896;28;20034;-64
2023/09/09 10:56:00;;;;;;;3.85;2.30;;;;;;;-145.63;47.51;39251.09;5025596;28;20036;-64
2023/09/09 10:58:35;;;;;;;6.00;2.70;;;;;;;-145.63;48.41;39198.31;5006006;28;20378;-64
2023/09/09 11:01:01;;;;;;;5.00;2.53;;;;;;;-145.63;47.80;39163.09;5022214;28;20076;-65
2023/09/09 11:03:39;;;;;;;5.43;2.17;;;;;;;-145.63;47.25;39200.25;5025277;28;20290;-64
2023/09/09 11:06:07;;;;;;;3.40;2.60;;;;;;;-145.63;47.42;39180.69;5025551;28;20033;-63
2023/09/09 11:08:35;;;;;;;9.00;4.35;;;;;;;-145.63;47.69;39176.78;5025978;28;20025;-63
2023/09/09 11:11:15;;;;;;;9.68;2.60;;;;;;;-145.63;47.07;39215.91;5025560;28;20033;-63
2023/09/09 11:13:43;;;;;;;4.88;4.05;;;;;;;-145.63;47.03;39168.97;5025414;28;20044;-62
2023/09/09 11:16:31;;;;;;;10.38;7.63;;;;;;;-145.63;48.02;39194.38;5024705;28;20026;-64